createdAt,value
2022-11-01T00:03:38.333Z,104.85
2022-11-01T00:08:34.539Z,106.00
2022-11-01T00:13:30.851Z,103.63
2022-11-01T00:18:27.079Z,106.63
2022-11-01T00:23:23.268Z,105.75
2022-11-01T00:28:19.501Z,108.30
2022-11-01T00:33:16.718Z,108.18
2022-11-01T00:38:13.772Z,105.55
2022-11-01T00:43:10.472Z,104.75
2022-11-01T00:48:06.830Z,109.20
2022-11-01T00:53:03.033Z,103.85
2022-11-01T00:57:59.490Z,109.63
2022-11-01T01:02:56.284Z,112.07
2022-11-01T01:07:52.561Z,106.70
2022-11-01T01:12:48.998Z,102.00
2022-11-01T01:17:45.174Z,107.80
2022-11-01T01:22:42.441Z,110.75
2022-11-01T01:27:38.642Z,108.45
2022-11-01T01:32:35.532Z,110.85
2022-11-01T01:37:31.861Z,110.45
2022-11-01T01:42:29.692Z,110.20
2022-11-01T01:47:33.833Z,105.80
2022-11-01T01:52:31.533Z,107.85
2022-11-01T01:57:28.087Z,109.38
2022-11-01T02:02:24.470Z,108.30
2022-11-01T02:07:20.810Z,105.13
2022-11-01T02:12:17.333Z,109.57
2022-11-01T02:17:25.378Z,109.35
2022-11-01T02:22:24.713Z,113.40
2022-11-01T02:27:23.622Z,109.35
2022-11-01T02:32:22.042Z,108.57
2022-11-01T02:37:23.493Z,106.90
2022-11-01T02:42:25.954Z,111.72
2022-11-01T02:47:23.422Z,106.53
2022-11-01T02:52:22.097Z,110.43
2022-11-01T02:57:24.177Z,113.95
2022-11-01T03:02:39.323Z,109.45
2022-11-01T03:07:35.619Z,107.10
2022-11-01T03:12:33.395Z,109.60
2022-11-01T03:17:33.893Z,112.43
2022-11-01T03:22:36.053Z,113.68
2022-11-01T03:27:34.452Z,113.22
2022-11-01T03:32:36.193Z,113.00
2022-11-01T03:37:33.477Z,114.90
2022-11-01T03:42:30.419Z,109.70
2022-11-01T03:47:26.688Z,110.78
2022-11-01T03:52:22.921Z,111.90
2022-11-01T03:57:19.100Z,109.10
2022-11-01T04:02:15.478Z,110.90
2022-11-01T04:07:11.669Z,112.80
2022-11-01T04:12:07.852Z,116.82
2022-11-01T04:17:22.597Z,118.28
2022-11-01T04:22:22.040Z,118.20
2022-11-01T04:27:20.797Z,115.78
2022-11-01T04:32:17.233Z,115.80
2022-11-01T04:37:14.046Z,113.00
2022-11-01T04:42:10.842Z,115.47
2022-11-01T04:47:07.065Z,115.30
2022-11-01T04:52:03.426Z,117.22
2022-11-01T04:56:59.706Z,112.13
2022-11-01T05:01:55.999Z,116.88
2022-11-01T05:06:52.300Z,120.38
2022-11-01T05:11:48.510Z,122.25
2022-11-01T05:16:44.775Z,119.72
2022-11-01T05:21:41.001Z,123.40
2022-11-01T05:26:37.291Z,121.22
2022-11-01T05:31:33.677Z,119.43
2022-11-01T05:36:29.975Z,119.55
2022-11-01T05:41:26.544Z,124.00
2022-11-01T05:46:22.784Z,122.85
2022-11-01T05:51:19.129Z,126.47
2022-11-01T05:56:15.768Z,120.53
2022-11-01T06:01:12.037Z,125.43
2022-11-01T06:06:08.324Z,126.13
2022-11-01T06:11:04.982Z,130.63
2022-11-01T06:16:02.157Z,121.38
2022-11-01T06:20:59.221Z,125.03
2022-11-01T06:26:04.973Z,122.63
2022-11-01T06:36:02.808Z,124.68
2022-11-01T06:40:59.065Z,125.15
2022-11-01T06:45:55.363Z,125.07
2022-11-01T06:50:53.723Z,123.20
2022-11-01T06:55:50.537Z,127.45
2022-11-01T07:00:46.925Z,124.85
2022-11-01T07:05:43.323Z,121.30
2022-11-01T07:10:41.110Z,124.05
2022-11-01T07:15:37.495Z,119.47
2022-11-01T07:20:41.196Z,124.00
2022-11-01T07:25:38.096Z,126.93
2022-11-01T07:30:34.526Z,123.32
2022-11-01T07:35:31.158Z,127.85
2022-11-01T07:40:28.090Z,126.22
2022-11-01T07:45:25.091Z,118.05
2022-11-01T07:50:21.457Z,121.95
2022-11-01T07:55:17.744Z,118.00
2022-11-01T08:00:14.432Z,118.75
2022-11-01T08:05:12.534Z,121.13
2022-11-01T08:10:10.751Z,127.70
2022-11-01T08:15:07.514Z,125.47
2022-11-01T08:20:04.330Z,130.35
2022-11-01T08:25:00.563Z,129.38
2022-11-01T08:29:56.813Z,126.68
2022-11-01T08:34:53.077Z,124.30
2022-11-01T08:39:49.414Z,124.88
2022-11-01T08:44:45.827Z,119.35
2022-11-01T08:49:42.116Z,125.07
2022-11-01T08:54:38.323Z,123.80
2022-11-01T08:59:34.613Z,117.82
2022-11-01T09:04:31.013Z,118.85
2022-11-01T09:09:27.571Z,112.20
2022-11-01T09:14:24.843Z,113.80
2022-11-01T09:19:21.174Z,108.32
2022-11-01T09:24:17.793Z,107.22
2022-11-01T09:29:14.329Z,107.30
2022-11-01T09:34:11.974Z,105.03
2022-11-01T09:39:08.246Z,83.22
2022-11-01T09:44:06.664Z,44.03
2022-11-01T09:49:03.704Z,31.30
2022-11-01T09:54:04.219Z,27.17
2022-11-01T09:59:06.688Z,24.27
2022-11-01T10:09:17.999Z,21.35
2022-11-01T10:14:14.195Z,21.77
2022-11-01T10:19:11.374Z,22.88
2022-11-01T10:24:13.339Z,21.33
2022-11-01T10:29:22.874Z,22.10
2022-11-01T10:34:29.789Z,20.80
2022-11-01T10:40:01.355Z,21.95
2022-11-01T10:45:23.229Z,19.83
2022-11-01T10:50:22.007Z,18.83
2022-11-01T10:55:29.350Z,16.63
2022-11-01T11:00:25.750Z,11.40
2022-11-01T11:05:23.215Z,10.32
2022-11-01T11:10:24.786Z,9.85
2022-11-01T11:15:23.194Z,9.70
2022-11-01T11:20:25.383Z,8.90
2022-11-01T11:25:27.378Z,9.30
2022-11-01T11:30:28.482Z,9.27
2022-11-01T11:35:26.954Z,9.10
2022-11-01T11:40:24.593Z,8.52
2022-11-01T11:45:29.372Z,9.20
2022-11-01T11:50:27.422Z,8.80
2022-11-01T11:55:39.314Z,9.35
2022-11-01T12:00:37.540Z,8.52
2022-11-01T12:05:34.173Z,9.55
2022-11-01T12:10:37.525Z,9.45
2022-11-01T12:15:38.302Z,9.45
2022-11-01T12:20:37.534Z,9.48
2022-11-01T12:25:35.574Z,10.00
2022-11-01T12:30:33.335Z,9.18
2022-11-01T12:35:31.364Z,8.60
2022-11-01T12:40:33.423Z,9.05
2022-11-01T12:45:29.645Z,8.40
2022-11-01T12:50:49.337Z,8.95
2022-11-01T12:55:47.016Z,9.40
2022-11-01T13:00:55.540Z,9.05
2022-11-01T13:05:57.503Z,9.38
2022-11-01T13:10:56.749Z,9.50
2022-11-01T13:16:07.480Z,9.38
2022-11-01T13:21:27.586Z,9.07
2022-11-01T13:26:25.954Z,9.55
2022-11-01T13:31:40.282Z,9.63
2022-11-01T13:36:42.377Z,9.27
2022-11-01T13:41:50.595Z,9.07
2022-11-01T13:46:46.858Z,9.05
2022-11-01T13:51:49.255Z,9.27
2022-11-01T13:56:58.495Z,8.40
2022-11-01T14:01:54.981Z,9.05
2022-11-01T14:07:12.260Z,9.60
2022-11-01T14:12:08.536Z,9.55
2022-11-01T14:17:17.154Z,10.52
2022-11-01T14:22:22.338Z,9.52
2022-11-01T14:27:20.329Z,9.15
2022-11-01T14:32:17.522Z,10.50
2022-11-01T14:37:19.083Z,9.00
2022-11-01T14:42:19.746Z,9.40
2022-11-01T14:47:36.338Z,10.57
2022-11-01T14:52:56.332Z,10.32
2022-11-01T14:58:11.660Z,9.57
2022-11-01T15:03:08.652Z,10.77
2022-11-01T15:08:19.611Z,10.15
2022-11-01T15:13:17.206Z,9.63
2022-11-01T15:18:14.971Z,9.75
2022-11-01T15:23:15.460Z,10.45
2022-11-01T15:28:19.547Z,10.02
2022-11-01T15:33:20.832Z,10.05
2022-11-01T15:38:20.749Z,10.68
2022-11-01T15:43:18.888Z,9.60
2022-11-01T15:48:18.562Z,10.57
2022-11-01T15:53:18.918Z,9.77
2022-11-01T15:58:18.221Z,10.35
2022-11-01T16:03:16.893Z,9.25
2022-11-01T16:08:25.433Z,11.10
2022-11-01T16:13:21.684Z,10.48
2022-11-01T16:18:23.900Z,10.55
2022-11-01T16:23:28.349Z,11.07
2022-11-01T16:28:24.793Z,10.98
2022-11-01T16:33:22.066Z,10.70
2022-11-01T16:38:39.372Z,11.15
2022-11-01T16:43:35.917Z,10.90
2022-11-01T16:48:47.775Z,10.82
2022-11-01T16:53:44.018Z,11.60
2022-11-01T16:58:40.268Z,11.63
2022-11-01T17:03:36.566Z,11.02
2022-11-01T17:08:33.663Z,9.75
2022-11-01T17:13:29.917Z,10.98
2022-11-01T17:18:28.455Z,11.40
2022-11-01T17:23:26.209Z,10.30
2022-11-01T17:28:25.942Z,11.25
2022-11-01T17:33:22.399Z,10.85
2022-11-01T17:38:30.209Z,11.60
2022-11-01T17:43:28.099Z,11.30
2022-11-01T17:48:24.351Z,11.60
2022-11-01T17:53:20.618Z,11.07
2022-11-01T17:58:17.006Z,10.65
2022-11-01T18:03:14.763Z,11.00
2022-11-01T18:08:16.389Z,11.80
2022-11-01T18:13:12.612Z,11.98
2022-11-01T18:18:14.578Z,12.15
2022-11-01T18:23:12.385Z,12.38
2022-11-01T18:28:15.732Z,12.15
2022-11-01T18:33:21.792Z,12.75
2022-11-01T18:38:21.901Z,13.50
2022-11-01T18:43:20.127Z,12.55
2022-11-01T18:48:19.808Z,12.70
2022-11-01T18:53:17.718Z,11.98
2022-11-01T18:58:15.901Z,12.57
2022-11-01T19:03:13.484Z,11.27
2022-11-01T19:08:18.463Z,13.00
2022-11-01T19:13:20.646Z,12.82
2022-11-01T19:18:18.975Z,13.07
2022-11-01T19:23:18.294Z,12.10
2022-11-01T19:28:25.470Z,13.60
2022-11-01T19:33:29.073Z,13.05
2022-11-01T19:38:25.317Z,13.73
2022-11-01T19:43:23.790Z,12.20
2022-11-01T19:48:22.174Z,12.88
2022-11-01T19:53:29.927Z,12.95
2022-11-01T19:58:38.820Z,11.20
2022-11-01T20:03:40.221Z,10.48
2022-11-01T20:08:36.542Z,9.32
2022-11-01T20:13:32.830Z,8.80
2022-11-01T20:18:29.118Z,8.82
2022-11-01T20:23:26.947Z,8.30
2022-11-01T20:28:23.818Z,8.25
2022-11-01T20:33:20.086Z,7.90
2022-11-01T20:38:16.554Z,7.90
2022-11-01T20:43:12.911Z,9.18
2022-11-01T20:48:09.268Z,8.70
2022-11-01T20:53:08.354Z,7.85
2022-11-01T20:58:04.898Z,7.90
2022-11-01T21:03:12.067Z,8.27
2022-11-01T21:08:11.070Z,9.60
2022-11-01T21:13:27.777Z,8.85
2022-11-01T21:18:27.990Z,9.10
2022-11-01T21:23:35.330Z,8.15
2022-11-01T21:28:42.314Z,8.13
2022-11-01T21:33:42.490Z,7.85
2022-11-01T21:38:40.630Z,8.43
2022-11-01T21:43:37.041Z,8.45
2022-11-01T21:48:33.331Z,8.55
2022-11-01T21:53:29.575Z,8.88
2022-11-01T21:58:25.780Z,8.23
2022-11-01T22:03:22.128Z,8.32
2022-11-01T22:08:18.312Z,8.05
2022-11-01T22:13:14.561Z,6.88
2022-11-01T22:18:10.746Z,7.47
2022-11-01T22:23:07.328Z,7.50
2022-11-01T22:28:06.041Z,8.00
2022-11-01T22:33:03.429Z,7.95
2022-11-01T22:37:59.966Z,8.38
2022-11-01T22:42:57.821Z,7.30
2022-11-01T22:47:54.062Z,7.28
2022-11-01T22:52:50.394Z,7.78
2022-11-01T22:57:51.924Z,7.38
2022-11-01T23:02:48.314Z,7.18
2022-11-01T23:07:46.442Z,7.75
2022-11-01T23:13:01.381Z,7.47
2022-11-01T23:18:02.387Z,7.10
2022-11-01T23:22:58.912Z,7.43
2022-11-01T23:27:55.191Z,7.80
2022-11-01T23:32:51.521Z,7.32
2022-11-01T23:37:49.086Z,7.00
2022-11-01T23:42:46.425Z,7.30
2022-11-01T23:47:42.749Z,8.02
2022-11-01T23:52:46.085Z,7.40
2022-11-01T23:57:42.416Z,7.18
